Für Piloten

Informationen für Piloten zum Flugplatz Borken-Hoxfeld
Hier findest Du alle relevanten Informationen, die Du als Pilot benötigst, um Borken-Hoxfeld anzufliegen.

Flugplatz: Borken-Hoxfeld ICAO-Code: EDLY
Borken-Hoxfeld Info: 122,925 Mhz
GAFOR Gebiet: 32
Platzrunde: Motorflug; -> Südplatzrunde; Segelflug; -> Nordplatzrunde;
Landegebühr: z.Zt. 5,00 Euro
Platzhöhe: 48m üMSL
Pisten: 12/30 – 740 m x 30 m, GRAS
Betriebszeiten: PPR (in den Sommermonaten Mittagspause beachten)

 

Wetterforecast:

Available data for EDDL from the past 2 hours

metar

  • EDDL 280850Z 16011KT 9999 -SHRA SCT012 SCT035TCU BKN050 20/17 Q0997 NOSIG
  • EDDL 280820Z 16012KT 120V180 9999 -SHRA SCT010 SCT035TCU BKN110 20/17 Q0997 NOSIG
  • EDDL 280750Z 16011KT 9999 -SHRA FEW010 SCT035TCU BKN110 20/17 Q0997 NOSIG
  • EDDL 280720Z 17010KT 130V190 9999 FEW010 SCT035 BKN110 20/17 Q0997 NOSIG

taf

  • TAF EDDL 280500Z 2806/2912 16008KT 9999 SCT040 TEMPO 2807/2813 RA PROB40 TEMPO 2808/2812 4000 TSRA SCT015 BKN025CB BECMG 2909/2912 22007KT

Alle obigen Informationen ersetzen nicht die vorgeschriebene, persönliche Flugvorbereitung.